createdAt,value
2019-01-21T00:02:00.834Z,30.43
2019-01-21T00:04:28.130Z,30.08
2019-01-21T00:06:55.442Z,31.35
2019-01-21T00:09:22.835Z,33.45
2019-01-21T00:11:50.121Z,33.23
2019-01-21T00:14:17.426Z,32.28
2019-01-21T00:16:44.800Z,32.63
2019-01-21T00:19:12.103Z,32.08
2019-01-21T00:21:39.842Z,31.97
2019-01-21T00:24:07.207Z,31.97
2019-01-21T00:26:34.547Z,30.95
2019-01-21T00:29:01.841Z,32.33
2019-01-21T00:31:29.149Z,31.68
2019-01-21T00:33:56.479Z,31.45
2019-01-21T00:36:23.766Z,29.87
2019-01-21T00:38:51.113Z,32.73
2019-01-21T00:41:18.387Z,30.32
2019-01-21T00:43:45.690Z,31.73
2019-01-21T00:46:12.996Z,31.68
2019-01-21T00:48:40.298Z,31.25
2019-01-21T00:51:07.635Z,31.60
2019-01-21T00:53:34.934Z,32.38
2019-01-21T00:56:02.221Z,31.20
2019-01-21T00:58:29.542Z,33.02
2019-01-21T01:00:56.837Z,34.10
2019-01-21T01:03:24.133Z,31.68
2019-01-21T01:05:51.453Z,32.40
2019-01-21T01:08:18.750Z,31.33
2019-01-21T01:10:46.065Z,33.60
2019-01-21T01:13:13.374Z,30.48
2019-01-21T01:15:40.698Z,33.42
2019-01-21T01:18:07.984Z,31.52
2019-01-21T01:20:35.361Z,36.83
2019-01-21T01:23:02.681Z,30.48
2019-01-21T01:25:29.971Z,33.85
2019-01-21T01:27:57.299Z,27.80
2019-01-21T01:30:24.595Z,33.33
2019-01-21T01:32:51.888Z,34.80
2019-01-21T01:35:19.224Z,32.35
2019-01-21T01:37:46.520Z,33.05
2019-01-21T01:40:14.778Z,32.73
2019-01-21T01:42:42.093Z,33.35
2019-01-21T01:45:11.001Z,31.55
2019-01-21T01:47:44.529Z,33.40
2019-01-21T01:50:07.623Z,30.32
2019-01-21T01:52:34.945Z,31.48
2019-01-21T01:55:02.810Z,32.55
2019-01-21T01:57:30.143Z,32.93
2019-01-21T01:59:57.451Z,32.10
2019-01-21T02:02:24.750Z,32.35
2019-01-21T02:04:53.773Z,29.45
2019-01-21T02:07:21.079Z,31.75
2019-01-21T02:09:48.561Z,32.58
2019-01-21T02:12:15.883Z,30.60
2019-01-21T02:14:43.189Z,32.30
2019-01-21T02:17:10.474Z,33.98
2019-01-21T02:19:37.803Z,33.35
2019-01-21T02:22:05.102Z,33.10
2019-01-21T02:24:33.356Z,30.90
2019-01-21T02:27:02.306Z,33.08
2019-01-21T02:29:31.233Z,32.58
2019-01-21T02:32:09.951Z,32.23
2019-01-21T02:34:41.707Z,32.45
2019-01-21T02:37:10.634Z,32.38
2019-01-21T02:39:39.588Z,33.28
2019-01-21T02:42:14.701Z,32.75
2019-01-21T02:44:46.596Z,32.35
2019-01-21T02:47:15.510Z,33.95
2019-01-21T02:50:01.093Z,33.60
2019-01-21T02:52:30.013Z,34.48
2019-01-21T02:54:58.950Z,31.77
2019-01-21T02:57:27.912Z,34.03
2019-01-21T02:59:56.843Z,35.52
2019-01-21T03:02:25.770Z,39.00
2019-01-21T03:05:07.708Z,35.20
2019-01-21T03:07:45.895Z,33.38
2019-01-21T03:10:30.150Z,36.30
2019-01-21T03:12:59.079Z,34.65
2019-01-21T03:15:30.774Z,34.85
2019-01-21T03:18:16.177Z,32.98
2019-01-21T03:20:48.191Z,34.25
2019-01-21T03:23:17.115Z,35.28
2019-01-21T03:25:54.778Z,38.45
2019-01-21T03:28:23.733Z,34.00
2019-01-21T03:31:09.503Z,36.60
2019-01-21T03:33:38.447Z,36.10
2019-01-21T03:36:07.381Z,37.50
2019-01-21T03:38:42.442Z,35.00
2019-01-21T03:41:14.290Z,35.38
2019-01-21T03:43:43.210Z,37.25
2019-01-21T03:46:14.933Z,33.60
2019-01-21T03:48:42.728Z,37.28
2019-01-21T03:51:28.602Z,37.08
2019-01-21T03:54:00.383Z,40.17
2019-01-21T03:56:29.339Z,37.95
2019-01-21T03:59:14.923Z,39.35
2019-01-21T04:01:46.805Z,38.63
2019-01-21T04:04:32.509Z,36.38
2019-01-21T04:07:01.453Z,37.67
2019-01-21T04:09:45.829Z,44.77
2019-01-21T04:12:14.786Z,37.63
2019-01-21T04:15:00.481Z,37.25
2019-01-21T04:17:32.229Z,39.40
2019-01-21T04:20:17.651Z,41.98
2019-01-21T04:22:49.485Z,38.75
2019-01-21T04:25:24.771Z,37.38
2019-01-21T04:27:53.705Z,39.20
2019-01-21T04:30:28.363Z,38.65
2019-01-21T04:32:59.981Z,37.25
2019-01-21T04:35:28.935Z,37.40
2019-01-21T04:38:00.532Z,36.80
2019-01-21T04:40:41.725Z,40.40
2019-01-21T04:43:10.654Z,38.88
2019-01-21T04:45:48.417Z,40.03
2019-01-21T04:48:17.342Z,37.70
2019-01-21T04:50:46.263Z,38.65
2019-01-21T04:53:15.218Z,38.42
2019-01-21T04:56:02.625Z,43.52
2019-01-21T04:58:34.490Z,40.95
2019-01-21T05:01:12.186Z,40.33
2019-01-21T05:03:47.124Z,39.98
2019-01-21T05:06:19.043Z,37.25
2019-01-21T05:09:04.527Z,40.88
2019-01-21T05:11:33.503Z,39.38
2019-01-21T05:14:20.527Z,39.50
2019-01-21T05:16:49.451Z,40.45
2019-01-21T05:19:21.305Z,37.88
2019-01-21T05:21:50.254Z,44.00
2019-01-21T05:24:37.657Z,50.55
2019-01-21T05:27:15.328Z,44.98
2019-01-21T05:29:44.244Z,41.42
2019-01-21T05:32:16.111Z,40.15
2019-01-21T05:34:47.987Z,40.50
2019-01-21T05:37:16.936Z,47.83
2019-01-21T05:39:54.911Z,42.00
2019-01-21T05:42:29.993Z,48.63
2019-01-21T05:45:04.899Z,48.98
2019-01-21T05:47:33.845Z,40.67
2019-01-21T05:50:05.459Z,39.45
2019-01-21T05:52:34.388Z,37.40
2019-01-21T05:55:18.267Z,38.60
2019-01-21T05:57:47.198Z,39.67
2019-01-21T06:00:16.153Z,39.70
2019-01-21T06:02:45.110Z,38.88
2019-01-21T06:05:14.038Z,39.80
2019-01-21T06:07:55.152Z,36.75
2019-01-21T06:10:26.806Z,37.60
2019-01-21T06:13:01.557Z,40.20
2019-01-21T06:15:30.479Z,38.30
2019-01-21T06:17:59.415Z,38.38
2019-01-21T06:20:44.826Z,37.17
2019-01-21T06:23:19.943Z,43.85
2019-01-21T06:26:01.102Z,41.42
2019-01-21T06:28:30.054Z,41.23
2019-01-21T06:30:58.984Z,38.95
2019-01-21T06:33:36.988Z,41.25
2019-01-21T06:36:11.899Z,36.53
2019-01-21T06:38:49.755Z,37.53
2019-01-21T06:41:18.682Z,46.33
2019-01-21T06:43:47.604Z,41.13
2019-01-21T06:46:33.207Z,38.67
2019-01-21T06:49:04.870Z,39.20
2019-01-21T06:51:38.414Z,41.80
2019-01-21T06:54:10.286Z,41.48
2019-01-21T06:56:55.994Z,44.77
2019-01-21T06:59:40.153Z,40.28
2019-01-21T07:02:09.131Z,41.37
2019-01-21T07:04:40.800Z,48.00
2019-01-21T07:07:18.981Z,46.53
2019-01-21T07:09:47.893Z,45.70
2019-01-21T07:12:31.777Z,43.30
2019-01-21T07:15:15.709Z,44.03
2019-01-21T07:17:47.787Z,41.83
2019-01-21T07:20:19.605Z,43.65
2019-01-21T07:22:54.693Z,46.45
2019-01-21T07:25:23.630Z,42.60
2019-01-21T07:28:04.634Z,40.55
2019-01-21T07:30:33.563Z,43.33
2019-01-21T07:33:11.504Z,46.88
2019-01-21T07:35:43.201Z,42.80
2019-01-21T07:38:15.075Z,42.08
2019-01-21T07:40:53.247Z,37.00
2019-01-21T07:43:24.876Z,39.67
2019-01-21T07:45:59.522Z,39.65
2019-01-21T07:48:34.321Z,39.05
2019-01-21T07:51:21.411Z,38.60
2019-01-21T07:53:53.407Z,39.23
2019-01-21T07:56:25.016Z,39.58
2019-01-21T07:59:06.121Z,41.20
2019-01-21T08:01:35.041Z,44.13
2019-01-21T08:04:16.103Z,38.73
2019-01-21T08:07:03.414Z,38.98
2019-01-21T08:09:47.695Z,47.27
2019-01-21T08:12:16.620Z,41.35
2019-01-21T08:14:48.269Z,39.00
2019-01-21T08:17:20.009Z,36.90
2019-01-21T08:19:51.633Z,38.42
2019-01-21T08:22:20.724Z,38.75
2019-01-21T08:25:06.608Z,41.92
2019-01-21T08:27:35.528Z,46.73
2019-01-21T08:30:21.251Z,39.45
2019-01-21T08:32:56.149Z,41.33
2019-01-21T08:35:37.028Z,39.78
2019-01-21T08:38:15.137Z,40.00
2019-01-21T08:40:50.445Z,40.30
2019-01-21T08:43:25.562Z,38.08
2019-01-21T08:46:10.882Z,38.58
2019-01-21T08:48:45.526Z,41.10
2019-01-21T08:51:14.479Z,45.15
2019-01-21T08:53:43.414Z,42.75
2019-01-21T08:56:28.793Z,46.75
2019-01-21T08:59:01.061Z,46.37
2019-01-21T09:01:29.978Z,51.10
2019-01-21T09:04:15.418Z,41.18
2019-01-21T09:07:01.125Z,36.05
2019-01-21T09:09:30.057Z,38.25
2019-01-21T09:12:16.002Z,41.75
2019-01-21T09:14:44.950Z,48.58
2019-01-21T09:17:13.868Z,41.68
2019-01-21T09:19:52.016Z,36.95
2019-01-21T09:22:21.029Z,34.30
2019-01-21T09:25:02.154Z,43.95
2019-01-21T09:27:46.347Z,41.42
2019-01-21T09:30:23.943Z,38.88
2019-01-21T09:32:58.600Z,39.10
2019-01-21T09:35:27.531Z,30.82
2019-01-21T09:38:02.498Z,34.03
2019-01-21T09:40:37.098Z,31.48
2019-01-21T09:43:08.742Z,32.67
2019-01-21T09:45:54.097Z,33.63
2019-01-21T09:48:21.059Z,34.98
2019-01-21T09:50:48.362Z,30.82
2019-01-21T09:53:15.659Z,36.90
2019-01-21T09:55:43.441Z,34.98
2019-01-21T09:58:10.747Z,32.10
2019-01-21T10:00:38.057Z,33.35
2019-01-21T10:03:05.363Z,35.40
2019-01-21T10:05:33.318Z,27.02
2019-01-21T10:08:02.272Z,28.57
2019-01-21T10:10:31.238Z,26.73
2019-01-21T10:13:15.216Z,26.85
2019-01-21T10:15:47.085Z,30.57
2019-01-21T10:18:16.040Z,35.78
2019-01-21T10:20:54.239Z,31.42
2019-01-21T10:23:26.050Z,22.17
2019-01-21T10:25:54.979Z,29.72
2019-01-21T10:28:23.923Z,24.63
2019-01-21T10:31:02.118Z,27.27
2019-01-21T10:33:46.262Z,25.35
2019-01-21T10:36:15.197Z,27.32
2019-01-21T10:39:00.988Z,25.17
2019-01-21T10:41:46.632Z,23.95
2019-01-21T10:44:18.497Z,27.52
2019-01-21T10:46:47.435Z,29.07
2019-01-21T10:49:22.132Z,27.00
2019-01-21T10:51:51.122Z,29.77
2019-01-21T10:54:32.081Z,25.17
2019-01-21T10:57:01.020Z,25.15
2019-01-21T10:59:32.670Z,23.12
2019-01-21T11:02:01.607Z,28.62
2019-01-21T11:04:47.382Z,23.35
2019-01-21T11:07:28.240Z,23.42
2019-01-21T11:10:03.434Z,22.40
2019-01-21T11:12:35.471Z,23.02
2019-01-21T11:15:10.460Z,23.02
2019-01-21T11:17:45.467Z,20.70
2019-01-21T11:20:14.416Z,24.55
2019-01-21T11:22:43.412Z,21.73
2019-01-21T11:25:25.041Z,23.27
2019-01-21T11:28:10.120Z,21.30
2019-01-21T11:30:41.746Z,23.00
2019-01-21T11:33:27.163Z,20.82
2019-01-21T11:36:11.357Z,25.12
2019-01-21T11:38:43.272Z,27.70
2019-01-21T11:41:12.194Z,25.43
2019-01-21T11:43:44.101Z,23.65
2019-01-21T11:46:15.723Z,24.07
2019-01-21T11:48:44.663Z,24.12
2019-01-21T11:51:19.405Z,25.05
2019-01-21T11:53:54.085Z,22.32
2019-01-21T11:56:25.730Z,21.10
2019-01-21T11:58:54.727Z,21.17
2019-01-21T12:01:23.679Z,21.93
2019-01-21T12:03:55.714Z,17.00
2019-01-21T12:06:24.692Z,18.42
2019-01-21T12:08:56.549Z,24.75
2019-01-21T12:11:25.503Z,14.68
2019-01-21T12:14:00.434Z,22.45
2019-01-21T12:16:38.222Z,24.37
2019-01-21T12:19:12.862Z,18.25
2019-01-21T12:21:47.523Z,18.30
2019-01-21T12:24:16.395Z,20.75
2019-01-21T12:26:48.428Z,19.32
2019-01-21T12:29:17.385Z,16.55
2019-01-21T12:31:49.266Z,20.88
2019-01-21T12:34:24.503Z,19.07
2019-01-21T12:36:53.431Z,22.40
2019-01-21T12:39:25.083Z,19.20
2019-01-21T12:42:03.110Z,18.60
2019-01-21T12:44:47.375Z,18.45
2019-01-21T12:47:16.297Z,20.75
2019-01-21T12:49:50.984Z,19.30
2019-01-21T12:52:19.902Z,20.27
2019-01-21T12:54:58.046Z,19.42
2019-01-21T12:57:43.449Z,22.13
2019-01-21T13:00:21.429Z,21.40
2019-01-21T13:02:56.041Z,24.30
2019-01-21T13:05:25.000Z,23.10
2019-01-21T13:07:57.055Z,20.25
2019-01-21T13:10:26.054Z,22.25
2019-01-21T13:13:11.414Z,22.42
2019-01-21T13:15:49.256Z,21.60
2019-01-21T13:18:35.148Z,20.40
2019-01-21T13:21:07.004Z,24.32
2019-01-21T13:23:35.944Z,23.15
2019-01-21T13:26:04.885Z,21.00
2019-01-21T13:28:36.522Z,20.75
2019-01-21T13:31:08.357Z,24.52
2019-01-21T13:33:46.263Z,27.37
2019-01-21T13:36:15.148Z,22.27
2019-01-21T13:38:50.084Z,22.75
2019-01-21T13:41:21.946Z,21.30
2019-01-21T13:43:50.873Z,24.40
2019-01-21T13:46:22.511Z,24.12
2019-01-21T13:48:51.453Z,22.50
2019-01-21T13:51:26.234Z,22.95
2019-01-21T13:53:55.161Z,19.52
2019-01-21T13:56:24.099Z,21.25
2019-01-21T13:59:11.435Z,23.10
2019-01-21T14:01:40.362Z,25.20
2019-01-21T14:04:21.367Z,19.80
2019-01-21T14:06:53.242Z,24.35
2019-01-21T14:09:22.170Z,28.47
2019-01-21T14:11:53.802Z,22.80
2019-01-21T14:14:22.742Z,23.47
2019-01-21T14:17:00.649Z,20.05
2019-01-21T14:19:32.293Z,26.87
2019-01-21T14:22:10.493Z,31.73
2019-01-21T14:24:42.362Z,24.92
2019-01-21T14:27:26.665Z,24.30
2019-01-21T14:30:01.784Z,24.70
2019-01-21T14:32:33.699Z,25.52
2019-01-21T14:35:02.624Z,24.90
2019-01-21T14:37:43.450Z,24.25
2019-01-21T14:40:15.341Z,20.85
2019-01-21T14:42:44.260Z,21.30
2019-01-21T14:45:29.690Z,27.15
2019-01-21T14:48:01.547Z,22.27
2019-01-21T14:50:39.645Z,30.85
2019-01-21T14:53:25.320Z,32.78
2019-01-21T14:56:03.294Z,42.13
2019-01-21T14:58:32.221Z,27.30
2019-01-21T15:01:06.895Z,27.52
2019-01-21T15:03:38.778Z,26.70
2019-01-21T15:06:10.550Z,22.90
2019-01-21T15:08:39.490Z,29.75
2019-01-21T15:11:20.536Z,26.82
2019-01-21T15:13:49.471Z,26.87
2019-01-21T15:16:24.714Z,26.95
2019-01-21T15:18:59.888Z,28.77
2019-01-21T15:21:34.719Z,31.27
2019-01-21T15:24:03.764Z,32.83
2019-01-21T15:26:35.719Z,24.52
2019-01-21T15:29:04.652Z,31.80
2019-01-21T15:31:33.571Z,26.87
2019-01-21T15:34:05.603Z,26.23
2019-01-21T15:36:47.360Z,29.80
2019-01-21T15:39:16.475Z,32.78
2019-01-21T15:41:46.988Z,33.92
2019-01-21T15:44:16.011Z,32.63
2019-01-21T15:46:44.964Z,34.83
2019-01-21T15:49:13.916Z,33.88
2019-01-21T15:51:45.789Z,33.25
2019-01-21T15:54:20.780Z,32.65
2019-01-21T15:56:52.406Z,31.77
2019-01-21T15:59:21.363Z,31.95
2019-01-21T16:01:53.072Z,34.20
2019-01-21T16:04:21.992Z,32.40
2019-01-21T16:06:56.698Z,32.93
2019-01-21T16:09:37.941Z,32.05
2019-01-21T16:12:12.849Z,34.45
2019-01-21T16:14:41.777Z,35.00
2019-01-21T16:17:13.386Z,36.00
2019-01-21T16:19:40.710Z,35.25
2019-01-21T16:22:12.526Z,36.28
2019-01-21T16:24:58.224Z,36.48
2019-01-21T16:27:30.123Z,39.35
2019-01-21T16:30:14.123Z,34.20
2019-01-21T16:32:42.706Z,35.00
2019-01-21T16:35:17.913Z,41.30
2019-01-21T16:37:49.957Z,36.40
2019-01-21T16:40:18.879Z,36.58
2019-01-21T16:42:46.218Z,38.38
2019-01-21T16:45:13.515Z,35.08
2019-01-21T16:47:40.814Z,37.10
2019-01-21T16:50:08.137Z,36.23
2019-01-21T16:52:36.911Z,42.38
2019-01-21T16:55:05.030Z,43.00
2019-01-21T16:57:32.334Z,37.25
2019-01-21T16:59:59.620Z,40.38
2019-01-21T17:02:26.933Z,36.68
2019-01-21T17:04:54.247Z,36.90
2019-01-21T17:07:21.571Z,43.58
2019-01-21T17:09:48.891Z,45.33
2019-01-21T17:12:16.174Z,39.65
2019-01-21T17:14:43.509Z,41.75
2019-01-21T17:19:38.053Z,44.53
2019-01-21T17:22:05.361Z,38.78
2019-01-21T17:24:32.673Z,41.10
2019-01-21T17:26:59.993Z,38.40
2019-01-21T17:29:27.295Z,47.70
2019-01-21T17:31:54.599Z,40.35
2019-01-21T17:34:21.927Z,43.17
2019-01-21T17:36:49.209Z,42.25
2019-01-21T17:39:16.558Z,39.98
2019-01-21T17:41:43.821Z,39.00
2019-01-21T17:44:11.149Z,39.85
2019-01-21T17:46:38.441Z,41.15
2019-01-21T17:49:05.750Z,40.63
2019-01-21T17:51:34.444Z,45.60
2019-01-21T17:54:02.021Z,47.08
2019-01-21T17:56:29.351Z,39.98
2019-01-21T17:58:56.647Z,42.23
2019-01-21T18:01:23.963Z,48.35
2019-01-21T18:03:51.279Z,45.10
2019-01-21T18:06:18.573Z,54.27
2019-01-21T18:08:45.915Z,53.33
2019-01-21T18:11:13.217Z,49.13
2019-01-21T18:13:40.551Z,53.33
2019-01-21T18:16:07.873Z,48.48
2019-01-21T18:18:35.166Z,52.80
2019-01-21T18:21:02.532Z,50.83
2019-01-21T18:23:29.854Z,48.90
2019-01-21T18:25:57.192Z,49.53
2019-01-21T18:28:24.509Z,48.98
2019-01-21T18:30:51.816Z,46.40
2019-01-21T18:33:19.112Z,45.85
2019-01-21T18:35:46.425Z,45.95
2019-01-21T18:38:13.725Z,47.62
2019-01-21T18:40:41.022Z,49.50
2019-01-21T18:43:08.342Z,62.15
2019-01-21T18:45:35.641Z,55.65
2019-01-21T18:48:02.953Z,55.00
2019-01-21T18:50:30.270Z,55.83
2019-01-21T18:52:57.561Z,52.60
2019-01-21T18:55:24.880Z,53.73
2019-01-21T18:57:55.909Z,48.95
2019-01-21T19:00:22.004Z,52.33
2019-01-21T19:02:49.406Z,59.33
2019-01-21T19:05:16.712Z,50.78
2019-01-21T19:07:44.005Z,49.77
2019-01-21T19:10:12.582Z,60.10
2019-01-21T19:12:39.877Z,56.33
2019-01-21T19:15:08.830Z,55.08
2019-01-21T19:17:36.130Z,49.35
2019-01-21T19:20:05.022Z,50.10
2019-01-21T19:22:32.324Z,55.33
2019-01-21T19:24:59.619Z,66.35
2019-01-21T19:27:26.945Z,92.45
2019-01-21T19:29:54.249Z,80.20
2019-01-21T19:32:21.543Z,68.17
2019-01-21T19:34:48.879Z,70.47
2019-01-21T19:37:16.197Z,62.60
2019-01-21T19:39:43.555Z,66.55
2019-01-21T19:42:10.823Z,51.20
2019-01-21T19:44:38.117Z,47.93
2019-01-21T19:47:05.409Z,46.60
2019-01-21T19:49:32.745Z,45.10
2019-01-21T19:52:00.443Z,50.03
2019-01-21T19:54:27.837Z,48.50
2019-01-21T19:56:55.156Z,51.18
2019-01-21T19:59:22.459Z,50.83
2019-01-21T20:01:49.771Z,58.68
2019-01-21T20:04:17.080Z,54.80
2019-01-21T20:06:44.374Z,48.63
2019-01-21T20:09:11.698Z,49.75
2019-01-21T20:11:38.993Z,48.15
2019-01-21T20:14:06.298Z,51.85
2019-01-21T20:16:33.626Z,47.08
2019-01-21T20:19:00.922Z,49.25
2019-01-21T20:21:28.230Z,44.05
2019-01-21T20:23:55.550Z,48.70
2019-01-21T20:26:22.874Z,65.62
2019-01-21T20:28:50.169Z,55.85
2019-01-21T20:31:17.474Z,57.73
2019-01-21T20:33:44.794Z,56.42
2019-01-21T20:36:12.090Z,55.17
2019-01-21T20:38:39.452Z,58.20
2019-01-21T20:41:06.765Z,60.85
2019-01-21T20:43:34.082Z,72.45
2019-01-21T20:46:01.371Z,67.22
2019-01-21T20:48:28.732Z,64.67
2019-01-21T20:50:56.027Z,63.73
2019-01-21T20:53:23.371Z,65.62
2019-01-21T20:55:50.703Z,64.20
2019-01-21T20:58:18.011Z,62.73
2019-01-21T21:00:45.310Z,58.60
2019-01-21T21:03:12.641Z,57.48
2019-01-21T21:05:39.934Z,46.65
2019-01-21T21:08:07.245Z,50.10
2019-01-21T21:10:34.570Z,44.75
2019-01-21T21:13:01.857Z,47.33
2019-01-21T21:15:30.354Z,45.50
2019-01-21T21:17:57.658Z,46.50
2019-01-21T21:20:24.952Z,51.08
2019-01-21T21:22:52.316Z,48.70
2019-01-21T21:25:19.624Z,51.88
2019-01-21T21:27:46.926Z,51.92
2019-01-21T21:30:15.873Z,51.80
2019-01-21T21:32:43.169Z,54.53
2019-01-21T21:35:10.476Z,57.25
2019-01-21T21:37:38.210Z,59.25
2019-01-21T21:40:09.969Z,63.60
2019-01-21T21:42:37.295Z,53.20
2019-01-21T21:45:06.222Z,53.55
2019-01-21T21:47:33.577Z,57.60
2019-01-21T21:50:00.886Z,58.73
2019-01-21T21:52:28.191Z,59.67
2019-01-21T21:54:55.504Z,50.03
2019-01-21T21:57:22.894Z,52.17
2019-01-21T21:59:50.207Z,49.90
2019-01-21T22:02:17.525Z,49.15
2019-01-21T22:04:44.830Z,46.30
2019-01-21T22:07:12.163Z,47.03
2019-01-21T22:09:39.466Z,45.60
2019-01-21T22:12:06.767Z,48.08
2019-01-21T22:14:34.075Z,46.25
2019-01-21T22:17:01.372Z,47.30
2019-01-21T22:19:28.672Z,49.53
2019-01-21T22:21:56.173Z,47.33
2019-01-21T22:24:23.498Z,48.00
2019-01-21T22:26:50.806Z,50.65
2019-01-21T22:29:18.129Z,49.50
2019-01-21T22:31:45.420Z,55.28
2019-01-21T22:34:12.721Z,54.65
2019-01-21T22:36:40.402Z,48.95
2019-01-21T22:39:07.689Z,46.77
2019-01-21T22:41:35.009Z,45.38
2019-01-21T22:44:02.387Z,49.73
2019-01-21T22:46:29.709Z,49.15
2019-01-21T22:48:57.031Z,52.35
2019-01-21T22:51:24.330Z,48.98
2019-01-21T22:53:51.643Z,50.40
2019-01-21T22:56:18.963Z,55.03
2019-01-21T22:58:46.253Z,50.55
2019-01-21T23:01:15.218Z,51.20
2019-01-21T23:03:42.514Z,50.65
2019-01-21T23:06:09.809Z,55.78
2019-01-21T23:08:37.130Z,61.48
2019-01-21T23:11:04.459Z,57.43
2019-01-21T23:13:31.781Z,59.65
2019-01-21T23:15:59.079Z,58.60
2019-01-21T23:18:26.375Z,57.95
2019-01-21T23:20:53.704Z,61.15
2019-01-21T23:23:21.002Z,51.05
2019-01-21T23:25:48.288Z,50.60
2019-01-21T23:28:15.615Z,52.95
2019-01-21T23:30:42.909Z,48.63
2019-01-21T23:33:10.225Z,51.70
2019-01-21T23:35:37.812Z,48.08
2019-01-21T23:38:05.112Z,50.05
2019-01-21T23:40:32.431Z,49.65
2019-01-21T23:42:59.734Z,53.42
2019-01-21T23:45:27.031Z,51.25
2019-01-21T23:47:54.350Z,53.98
2019-01-21T23:50:21.950Z,59.70
2019-01-21T23:52:55.784Z,56.85
2019-01-21T23:55:18.208Z,63.60
2019-01-21T23:57:45.494Z,53.28
